sensor_id;sensor_type;location;lat;lon;timestamp;temperature;humidity
54260;DHT22;40172;53.022;7.012;2023-08-08T00:01:50;13.00;99.90
54260;DHT22;40172;53.022;7.012;2023-08-08T00:04:15;13.00;99.90
54260;DHT22;40172;53.022;7.012;2023-08-08T00:06:41;12.90;99.90
54260;DHT22;40172;53.022;7.012;2023-08-08T00:09:06;12.90;99.90
54260;DHT22;40172;53.022;7.012;2023-08-08T00:11:32;12.80;99.90
54260;DHT22;40172;53.022;7.012;2023-08-08T00:13:58;12.70;99.90
54260;DHT22;40172;53.022;7.012;2023-08-08T00:16:24;12.70;99.90
54260;DHT22;40172;53.022;7.012;2023-08-08T00:18:50;12.70;99.90
54260;DHT22;40172;53.022;7.012;2023-08-08T00:21:17;12.70;99.90
54260;DHT22;40172;53.022;7.012;2023-08-08T00:23:43;12.70;99.90
54260;DHT22;40172;53.022;7.012;2023-08-08T00:26:08;12.70;99.90
54260;DHT22;40172;53.022;7.012;2023-08-08T00:28:34;12.70;99.90
54260;DHT22;40172;53.022;7.012;2023-08-08T00:30:59;12.70;99.90
54260;DHT22;40172;53.022;7.012;2023-08-08T00:33:25;12.70;99.90
54260;DHT22;40172;53.022;7.012;2023-08-08T00:35:51;12.70;99.90
54260;DHT22;40172;53.022;7.012;2023-08-08T00:38:16;12.80;99.90
54260;DHT22;40172;53.022;7.012;2023-08-08T00:40:44;12.80;99.90
54260;DHT22;40172;53.022;7.012;2023-08-08T00:43:09;12.80;99.90
54260;DHT22;40172;53.022;7.012;2023-08-08T00:45:35;12.80;99.90
54260;DHT22;40172;53.022;7.012;2023-08-08T00:48:01;12.90;99.90
54260;DHT22;40172;53.022;7.012;2023-08-08T00:50:27;12.90;99.90
54260;DHT22;40172;53.022;7.012;2023-08-08T00:52:53;13.00;99.90
54260;DHT22;40172;53.022;7.012;2023-08-08T00:55:18;13.00;99.90
54260;DHT22;40172;53.022;7.012;2023-08-08T00:57:45;13.10;99.90
54260;DHT22;40172;53.022;7.012;2023-08-08T01:00:11;13.10;99.90
54260;DHT22;40172;53.022;7.012;2023-08-08T01:02:37;13.10;99.90
54260;DHT22;40172;53.022;7.012;2023-08-08T01:05:03;13.10;99.90
54260;DHT22;40172;53.022;7.012;2023-08-08T01:10:45;13.20;99.90
54260;DHT22;40172;53.022;7.012;2023-08-08T01:13:07;13.20;99.90
54260;DHT22;40172;53.022;7.012;2023-08-08T01:15:34;13.30;99.90
54260;DHT22;40172;53.022;7.012;2023-08-08T01:18:05;13.30;99.90
54260;DHT22;40172;53.022;7.012;2023-08-08T01:20:32;13.30;99.90
54260;DHT22;40172;53.022;7.012;2023-08-08T01:23:24;13.30;99.90
54260;DHT22;40172;53.022;7.012;2023-08-08T01:25:51;13.40;99.90
54260;DHT22;40172;53.022;7.012;2023-08-08T01:28:21;13.30;99.90
54260;DHT22;40172;53.022;7.012;2023-08-08T01:30:47;13.30;99.90
54260;DHT22;40172;53.022;7.012;2023-08-08T01:33:13;13.20;99.90
54260;DHT22;40172;53.022;7.012;2023-08-08T01:35:40;13.20;99.90
54260;DHT22;40172;53.022;7.012;2023-08-08T01:40:50;13.20;99.90
54260;DHT22;40172;53.022;7.012;2023-08-08T01:43:16;13.20;99.90
54260;DHT22;40172;53.022;7.012;2023-08-08T01:45:43;13.10;99.90
54260;DHT22;40172;53.022;7.012;2023-08-08T01:48:10;13.10;99.90
54260;DHT22;40172;53.022;7.012;2023-08-08T01:50:37;13.10;99.90
54260;DHT22;40172;53.022;7.012;2023-08-08T01:53:03;13.10;99.90
54260;DHT22;40172;53.022;7.012;2023-08-08T01:55:30;13.00;99.90
54260;DHT22;40172;53.022;7.012;2023-08-08T01:57:55;13.00;99.90
54260;DHT22;40172;53.022;7.012;2023-08-08T02:00:21;13.00;99.90
54260;DHT22;40172;53.022;7.012;2023-08-08T02:02:47;13.00;99.90
54260;DHT22;40172;53.022;7.012;2023-08-08T02:05:13;13.00;99.90
54260;DHT22;40172;53.022;7.012;2023-08-08T02:07:38;13.00;99.90
54260;DHT22;40172;53.022;7.012;2023-08-08T02:10:04;13.00;99.90
54260;DHT22;40172;53.022;7.012;2023-08-08T02:12:30;13.00;99.90
54260;DHT22;40172;53.022;7.012;2023-08-08T02:14:59;13.00;99.90
54260;DHT22;40172;53.022;7.012;2023-08-08T02:17:25;13.00;99.90
54260;DHT22;40172;53.022;7.012;2023-08-08T02:19:51;13.00;99.90
54260;DHT22;40172;53.022;7.012;2023-08-08T02:22:17;13.10;99.90
54260;DHT22;40172;53.022;7.012;2023-08-08T02:24:43;13.10;99.90
54260;DHT22;40172;53.022;7.012;2023-08-08T02:27:09;13.10;99.90
54260;DHT22;40172;53.022;7.012;2023-08-08T02:29:35;13.20;99.90
54260;DHT22;40172;53.022;7.012;2023-08-08T02:32:00;13.20;99.90
54260;DHT22;40172;53.022;7.012;2023-08-08T02:34:26;13.20;99.90
54260;DHT22;40172;53.022;7.012;2023-08-08T02:36:51;13.20;99.90
54260;DHT22;40172;53.022;7.012;2023-08-08T02:39:17;13.20;99.90
54260;DHT22;40172;53.022;7.012;2023-08-08T02:41:43;13.20;99.90
54260;DHT22;40172;53.022;7.012;2023-08-08T02:44:08;13.20;99.90
54260;DHT22;40172;53.022;7.012;2023-08-08T02:46:34;13.20;99.90
54260;DHT22;40172;53.022;7.012;2023-08-08T02:49:00;13.20;99.90
54260;DHT22;40172;53.022;7.012;2023-08-08T02:51:25;13.20;99.90
54260;DHT22;40172;53.022;7.012;2023-08-08T02:53:51;13.30;99.90
54260;DHT22;40172;53.022;7.012;2023-08-08T02:56:16;13.30;99.90
54260;DHT22;40172;53.022;7.012;2023-08-08T02:58:42;13.30;99.90
54260;DHT22;40172;53.022;7.012;2023-08-08T03:01:08;13.30;99.90
54260;DHT22;40172;53.022;7.012;2023-08-08T03:03:33;13.30;99.90
54260;DHT22;40172;53.022;7.012;2023-08-08T03:06:01;13.30;99.90
54260;DHT22;40172;53.022;7.012;2023-08-08T03:08:27;13.30;99.90
54260;DHT22;40172;53.022;7.012;2023-08-08T03:10:53;13.30;99.90
54260;DHT22;40172;53.022;7.012;2023-08-08T03:13:18;13.30;99.90
54260;DHT22;40172;53.022;7.012;2023-08-08T03:15:45;13.30;99.90
54260;DHT22;40172;53.022;7.012;2023-08-08T03:18:11;13.30;99.90
54260;DHT22;40172;53.022;7.012;2023-08-08T03:20:36;13.20;99.90
54260;DHT22;40172;53.022;7.012;2023-08-08T03:23:02;13.20;99.90
54260;DHT22;40172;53.022;7.012;2023-08-08T03:25:27;13.20;99.90
54260;DHT22;40172;53.022;7.012;2023-08-08T03:27:53;13.20;99.90
54260;DHT22;40172;53.022;7.012;2023-08-08T03:30:19;13.20;99.90
54260;DHT22;40172;53.022;7.012;2023-08-08T03:32:44;13.20;99.90
54260;DHT22;40172;53.022;7.012;2023-08-08T03:35:10;13.20;99.90
54260;DHT22;40172;53.022;7.012;2023-08-08T03:37:36;13.20;99.90
54260;DHT22;40172;53.022;7.012;2023-08-08T03:40:01;13.20;99.90
54260;DHT22;40172;53.022;7.012;2023-08-08T03:42:27;13.20;99.90
54260;DHT22;40172;53.022;7.012;2023-08-08T03:44:53;13.20;99.90
54260;DHT22;40172;53.022;7.012;2023-08-08T03:47:18;13.20;99.90
54260;DHT22;40172;53.022;7.012;2023-08-08T03:49:44;13.20;99.90
54260;DHT22;40172;53.022;7.012;2023-08-08T03:52:09;13.10;99.90
54260;DHT22;40172;53.022;7.012;2023-08-08T03:54:35;13.10;99.90
54260;DHT22;40172;53.022;7.012;2023-08-08T03:57:00;13.10;99.90
54260;DHT22;40172;53.022;7.012;2023-08-08T03:59:26;13.10;99.90
54260;DHT22;40172;53.022;7.012;2023-08-08T04:01:52;13.10;99.90
54260;DHT22;40172;53.022;7.012;2023-08-08T04:04:18;13.10;99.90
54260;DHT22;40172;53.022;7.012;2023-08-08T04:06:44;13.10;99.90
54260;DHT22;40172;53.022;7.012;2023-08-08T04:09:09;13.10;99.90
54260;DHT22;40172;53.022;7.012;2023-08-08T04:11:35;13.20;99.90
54260;DHT22;40172;53.022;7.012;2023-08-08T04:14:01;13.20;99.90
54260;DHT22;40172;53.022;7.012;2023-08-08T04:16:27;13.20;99.90
54260;DHT22;40172;53.022;7.012;2023-08-08T04:18:53;13.20;99.90
54260;DHT22;40172;53.022;7.012;2023-08-08T04:21:18;13.20;99.90
54260;DHT22;40172;53.022;7.012;2023-08-08T04:23:44;13.20;99.90
54260;DHT22;40172;53.022;7.012;2023-08-08T04:26:10;13.20;99.90
54260;DHT22;40172;53.022;7.012;2023-08-08T04:28:35;13.20;99.90
54260;DHT22;40172;53.022;7.012;2023-08-08T04:31:01;13.20;99.90
54260;DHT22;40172;53.022;7.012;2023-08-08T04:33:26;13.20;99.90
54260;DHT22;40172;53.022;7.012;2023-08-08T04:35:52;13.30;99.90
54260;DHT22;40172;53.022;7.012;2023-08-08T04:38:17;13.30;99.90
54260;DHT22;40172;53.022;7.012;2023-08-08T04:40:43;13.40;99.90
54260;DHT22;40172;53.022;7.012;2023-08-08T04:43:08;13.50;99.90
54260;DHT22;40172;53.022;7.012;2023-08-08T04:45:34;13.50;99.90
54260;DHT22;40172;53.022;7.012;2023-08-08T04:48:00;13.50;99.90
54260;DHT22;40172;53.022;7.012;2023-08-08T04:50:25;13.50;99.90
54260;DHT22;40172;53.022;7.012;2023-08-08T04:52:51;13.60;99.90
54260;DHT22;40172;53.022;7.012;2023-08-08T04:55:16;13.60;99.90
54260;DHT22;40172;53.022;7.012;2023-08-08T04:57:42;13.60;99.90
54260;DHT22;40172;53.022;7.012;2023-08-08T05:00:08;13.70;99.90
54260;DHT22;40172;53.022;7.012;2023-08-08T05:02:34;13.70;99.90
54260;DHT22;40172;53.022;7.012;2023-08-08T05:05:00;14.50;99.90
54260;DHT22;40172;53.022;7.012;2023-08-08T05:07:27;13.70;99.90
54260;DHT22;40172;53.022;7.012;2023-08-08T05:09:52;13.80;99.90
54260;DHT22;40172;53.022;7.012;2023-08-08T05:12:18;13.90;99.90
54260;DHT22;40172;53.022;7.012;2023-08-08T05:14:43;13.90;99.90
54260;DHT22;40172;53.022;7.012;2023-08-08T05:17:09;13.90;99.90
54260;DHT22;40172;53.022;7.012;2023-08-08T05:19:35;13.90;99.90
54260;DHT22;40172;53.022;7.012;2023-08-08T05:22:00;13.90;99.90
54260;DHT22;40172;53.022;7.012;2023-08-08T05:24:26;13.80;99.90
54260;DHT22;40172;53.022;7.012;2023-08-08T05:26:52;13.80;99.90
54260;DHT22;40172;53.022;7.012;2023-08-08T05:29:19;13.80;99.90
54260;DHT22;40172;53.022;7.012;2023-08-08T05:31:45;13.80;99.90
54260;DHT22;40172;53.022;7.012;2023-08-08T05:34:11;13.90;99.90
54260;DHT22;40172;53.022;7.012;2023-08-08T05:36:36;13.90;99.90
54260;DHT22;40172;53.022;7.012;2023-08-08T05:39:02;13.90;99.90
54260;DHT22;40172;53.022;7.012;2023-08-08T05:41:28;14.00;99.90
54260;DHT22;40172;53.022;7.012;2023-08-08T05:43:54;14.00;99.90
54260;DHT22;40172;53.022;7.012;2023-08-08T05:46:19;14.00;99.90
54260;DHT22;40172;53.022;7.012;2023-08-08T05:48:45;14.50;99.90
54260;DHT22;40172;53.022;7.012;2023-08-08T05:51:11;14.10;99.90
54260;DHT22;40172;53.022;7.012;2023-08-08T05:53:37;14.10;99.90
54260;DHT22;40172;53.022;7.012;2023-08-08T05:56:03;14.20;99.90
54260;DHT22;40172;53.022;7.012;2023-08-08T05:58:29;14.30;99.90
54260;DHT22;40172;53.022;7.012;2023-08-08T06:00:55;14.30;99.90
54260;DHT22;40172;53.022;7.012;2023-08-08T06:03:20;14.40;99.90
54260;DHT22;40172;53.022;7.012;2023-08-08T06:05:46;14.40;99.90
54260;DHT22;40172;53.022;7.012;2023-08-08T06:08:12;14.50;99.90
54260;DHT22;40172;53.022;7.012;2023-08-08T06:10:39;14.60;99.90
54260;DHT22;40172;53.022;7.012;2023-08-08T06:13:04;14.60;99.90
54260;DHT22;40172;53.022;7.012;2023-08-08T06:15:30;14.70;99.90
54260;DHT22;40172;53.022;7.012;2023-08-08T06:17:56;14.80;99.90
54260;DHT22;40172;53.022;7.012;2023-08-08T06:20:21;14.80;99.90
54260;DHT22;40172;53.022;7.012;2023-08-08T06:22:47;14.90;99.90
54260;DHT22;40172;53.022;7.012;2023-08-08T06:25:12;15.00;99.90
54260;DHT22;40172;53.022;7.012;2023-08-08T06:27:38;15.10;99.90
54260;DHT22;40172;53.022;7.012;2023-08-08T06:30:04;15.10;99.90
54260;DHT22;40172;53.022;7.012;2023-08-08T06:32:30;15.20;99.90
54260;DHT22;40172;53.022;7.012;2023-08-08T06:34:56;15.30;99.90
54260;DHT22;40172;53.022;7.012;2023-08-08T06:37:21;15.40;99.90
54260;DHT22;40172;53.022;7.012;2023-08-08T06:39:47;15.40;99.90
54260;DHT22;40172;53.022;7.012;2023-08-08T06:42:12;15.50;99.90
54260;DHT22;40172;53.022;7.012;2023-08-08T06:44:43;15.60;99.90
54260;DHT22;40172;53.022;7.012;2023-08-08T06:47:09;15.70;99.90
54260;DHT22;40172;53.022;7.012;2023-08-08T06:49:36;16.30;99.90
54260;DHT22;40172;53.022;7.012;2023-08-08T06:52:02;15.70;99.90
54260;DHT22;40172;53.022;7.012;2023-08-08T06:54:27;15.80;99.90
54260;DHT22;40172;53.022;7.012;2023-08-08T06:56:56;15.90;99.90
54260;DHT22;40172;53.022;7.012;2023-08-08T06:59:23;15.90;99.90
54260;DHT22;40172;53.022;7.012;2023-08-08T07:01:49;16.10;99.90
54260;DHT22;40172;53.022;7.012;2023-08-08T07:04:14;16.10;99.90
54260;DHT22;40172;53.022;7.012;2023-08-08T07:06:42;16.10;99.90
54260;DHT22;40172;53.022;7.012;2023-08-08T07:09:07;16.20;99.90
54260;DHT22;40172;53.022;7.012;2023-08-08T07:11:36;16.20;99.90
54260;DHT22;40172;53.022;7.012;2023-08-08T07:14:01;16.30;99.90
54260;DHT22;40172;53.022;7.012;2023-08-08T07:16:27;16.40;99.90
54260;DHT22;40172;53.022;7.012;2023-08-08T07:18:53;16.40;99.90
54260;DHT22;40172;53.022;7.012;2023-08-08T07:21:18;16.50;99.90
54260;DHT22;40172;53.022;7.012;2023-08-08T07:23:44;17.30;99.90
54260;DHT22;40172;53.022;7.012;2023-08-08T07:26:09;16.70;99.90
54260;DHT22;40172;53.022;7.012;2023-08-08T07:28:35;16.80;99.90
54260;DHT22;40172;53.022;7.012;2023-08-08T07:31:01;16.80;99.90
54260;DHT22;40172;53.022;7.012;2023-08-08T07:33:27;16.80;99.90
54260;DHT22;40172;53.022;7.012;2023-08-08T07:35:52;16.80;99.90
54260;DHT22;40172;53.022;7.012;2023-08-08T07:38:18;16.90;99.90
54260;DHT22;40172;53.022;7.012;2023-08-08T07:40:43;16.90;99.90
54260;DHT22;40172;53.022;7.012;2023-08-08T07:43:09;16.90;99.90
54260;DHT22;40172;53.022;7.012;2023-08-08T07:45:35;16.90;99.90
54260;DHT22;40172;53.022;7.012;2023-08-08T07:48:00;17.00;99.90
54260;DHT22;40172;53.022;7.012;2023-08-08T07:50:26;17.10;99.90
54260;DHT22;40172;53.022;7.012;2023-08-08T07:52:51;17.30;99.90
54260;DHT22;40172;53.022;7.012;2023-08-08T07:55:17;17.40;99.90
54260;DHT22;40172;53.022;7.012;2023-08-08T07:57:42;17.50;99.90
54260;DHT22;40172;53.022;7.012;2023-08-08T08:00:09;17.50;99.90
54260;DHT22;40172;53.022;7.012;2023-08-08T08:02:42;17.50;99.90
54260;DHT22;40172;53.022;7.012;2023-08-08T08:05:08;17.70;99.90
54260;DHT22;40172;53.022;7.012;2023-08-08T08:07:35;17.90;99.90
54260;DHT22;40172;53.022;7.012;2023-08-08T08:10:05;17.90;99.90
54260;DHT22;40172;53.022;7.012;2023-08-08T08:12:32;17.80;99.90
54260;DHT22;40172;53.022;7.012;2023-08-08T08:14:58;17.80;99.90
54260;DHT22;40172;53.022;7.012;2023-08-08T08:17:23;17.70;99.90
54260;DHT22;40172;53.022;7.012;2023-08-08T08:19:52;17.70;99.90
54260;DHT22;40172;53.022;7.012;2023-08-08T08:22:18;17.60;99.90
54260;DHT22;40172;53.022;7.012;2023-08-08T08:24:44;17.60;99.90
54260;DHT22;40172;53.022;7.012;2023-08-08T08:27:11;17.60;99.90
54260;DHT22;40172;53.022;7.012;2023-08-08T08:29:37;17.50;99.90
54260;DHT22;40172;53.022;7.012;2023-08-08T08:32:04;17.50;99.90
54260;DHT22;40172;53.022;7.012;2023-08-08T08:34:29;17.60;99.90
54260;DHT22;40172;53.022;7.012;2023-08-08T08:36:55;17.60;99.90
54260;DHT22;40172;53.022;7.012;2023-08-08T08:39:21;17.70;99.90
54260;DHT22;40172;53.022;7.012;2023-08-08T08:41:49;17.70;99.90
54260;DHT22;40172;53.022;7.012;2023-08-08T08:44:19;17.90;99.90
54260;DHT22;40172;53.022;7.012;2023-08-08T08:46:48;17.90;99.90
54260;DHT22;40172;53.022;7.012;2023-08-08T08:49:17;17.80;99.90
54260;DHT22;40172;53.022;7.012;2023-08-08T08:51:44;17.80;99.90
54260;DHT22;40172;53.022;7.012;2023-08-08T08:54:10;17.80;99.90
54260;DHT22;40172;53.022;7.012;2023-08-08T08:56:36;17.90;99.90
54260;DHT22;40172;53.022;7.012;2023-08-08T08:59:02;18.00;99.90
54260;DHT22;40172;53.022;7.012;2023-08-08T09:01:28;18.10;99.90
54260;DHT22;40172;53.022;7.012;2023-08-08T09:03:54;18.00;99.90
54260;DHT22;40172;53.022;7.012;2023-08-08T09:06:21;17.90;99.90
54260;DHT22;40172;53.022;7.012;2023-08-08T09:08:48;17.90;99.90
54260;DHT22;40172;53.022;7.012;2023-08-08T09:11:14;17.80;99.90
54260;DHT22;40172;53.022;7.012;2023-08-08T09:13:40;17.80;99.90
54260;DHT22;40172;53.022;7.012;2023-08-08T09:16:06;17.80;99.90
54260;DHT22;40172;53.022;7.012;2023-08-08T09:18:32;17.70;99.90
54260;DHT22;40172;53.022;7.012;2023-08-08T09:20:59;17.50;99.90
54260;DHT22;40172;53.022;7.012;2023-08-08T09:23:24;17.30;99.90
54260;DHT22;40172;53.022;7.012;2023-08-08T09:25:50;16.90;99.90
54260;DHT22;40172;53.022;7.012;2023-08-08T09:28:16;16.70;99.90
54260;DHT22;40172;53.022;7.012;2023-08-08T09:30:42;16.50;99.90
54260;DHT22;40172;53.022;7.012;2023-08-08T09:33:08;16.40;99.90
54260;DHT22;40172;53.022;7.012;2023-08-08T09:35:34;16.30;99.90
54260;DHT22;40172;53.022;7.012;2023-08-08T09:37:59;16.30;99.90
54260;DHT22;40172;53.022;7.012;2023-08-08T09:40:25;16.30;99.90
54260;DHT22;40172;53.022;7.012;2023-08-08T09:42:52;16.40;99.90
54260;DHT22;40172;53.022;7.012;2023-08-08T09:45:19;16.60;99.90
54260;DHT22;40172;53.022;7.012;2023-08-08T09:47:45;16.90;99.90
54260;DHT22;40172;53.022;7.012;2023-08-08T09:50:10;17.00;99.90
54260;DHT22;40172;53.022;7.012;2023-08-08T09:52:36;17.10;99.90
54260;DHT22;40172;53.022;7.012;2023-08-08T09:55:05;17.00;99.90
54260;DHT22;40172;53.022;7.012;2023-08-08T09:57:32;16.90;99.90
54260;DHT22;40172;53.022;7.012;2023-08-08T09:59:58;17.40;99.90
54260;DHT22;40172;53.022;7.012;2023-08-08T10:02:24;16.50;99.90
54260;DHT22;40172;53.022;7.012;2023-08-08T10:04:51;16.40;99.90
54260;DHT22;40172;53.022;7.012;2023-08-08T10:07:17;16.50;99.90
54260;DHT22;40172;53.022;7.012;2023-08-08T10:09:43;16.70;99.90
54260;DHT22;40172;53.022;7.012;2023-08-08T10:12:11;17.00;99.90
54260;DHT22;40172;53.022;7.012;2023-08-08T10:14:38;17.40;99.90
54260;DHT22;40172;53.022;7.012;2023-08-08T10:17:07;17.60;99.90
54260;DHT22;40172;53.022;7.012;2023-08-08T10:19:33;17.70;99.90
54260;DHT22;40172;53.022;7.012;2023-08-08T10:22:04;17.60;99.90
54260;DHT22;40172;53.022;7.012;2023-08-08T10:24:36;17.50;99.90
54260;DHT22;40172;53.022;7.012;2023-08-08T10:27:03;17.40;99.90
54260;DHT22;40172;53.022;7.012;2023-08-08T10:29:31;17.50;99.90
54260;DHT22;40172;53.022;7.012;2023-08-08T10:34:37;17.80;99.90
54260;DHT22;40172;53.022;7.012;2023-08-08T10:37:12;17.90;99.90
54260;DHT22;40172;53.022;7.012;2023-08-08T10:39:48;18.20;99.90
54260;DHT22;40172;53.022;7.012;2023-08-08T10:42:18;18.10;99.90
54260;DHT22;40172;53.022;7.012;2023-08-08T10:45:00;17.80;99.90
54260;DHT22;40172;53.022;7.012;2023-08-08T10:47:30;17.80;99.90
54260;DHT22;40172;53.022;7.012;2023-08-08T10:50:14;18.00;99.90
54260;DHT22;40172;53.022;7.012;2023-08-08T10:55:27;18.40;99.90
54260;DHT22;40172;53.022;7.012;2023-08-08T10:57:58;18.50;99.90
54260;DHT22;40172;53.022;7.012;2023-08-08T11:00:27;18.40;99.90
54260;DHT22;40172;53.022;7.012;2023-08-08T11:02:54;18.10;99.90
54260;DHT22;40172;53.022;7.012;2023-08-08T11:05:22;18.20;99.90
54260;DHT22;40172;53.022;7.012;2023-08-08T11:07:48;18.20;99.90
54260;DHT22;40172;53.022;7.012;2023-08-08T11:10:14;18.10;99.90
54260;DHT22;40172;53.022;7.012;2023-08-08T11:12:40;18.00;99.90
54260;DHT22;40172;53.022;7.012;2023-08-08T11:15:06;18.00;99.90
54260;DHT22;40172;53.022;7.012;2023-08-08T11:17:32;18.20;99.90
54260;DHT22;40172;53.022;7.012;2023-08-08T11:19:58;18.30;99.90
54260;DHT22;40172;53.022;7.012;2023-08-08T11:22:24;18.20;99.90
54260;DHT22;40172;53.022;7.012;2023-08-08T11:24:50;17.90;99.90
54260;DHT22;40172;53.022;7.012;2023-08-08T11:27:16;17.70;99.90
54260;DHT22;40172;53.022;7.012;2023-08-08T11:29:51;17.50;99.90
54260;DHT22;40172;53.022;7.012;2023-08-08T11:32:17;17.50;99.90
54260;DHT22;40172;53.022;7.012;2023-08-08T11:34:42;17.70;99.90
54260;DHT22;40172;53.022;7.012;2023-08-08T11:37:09;17.60;99.90
54260;DHT22;40172;53.022;7.012;2023-08-08T11:39:36;17.60;99.90
54260;DHT22;40172;53.022;7.012;2023-08-08T11:42:02;17.50;99.90
54260;DHT22;40172;53.022;7.012;2023-08-08T11:44:28;17.50;99.90
54260;DHT22;40172;53.022;7.012;2023-08-08T11:46:54;17.70;99.90
54260;DHT22;40172;53.022;7.012;2023-08-08T11:49:19;17.80;99.90
54260;DHT22;40172;53.022;7.012;2023-08-08T11:51:45;17.90;99.90
54260;DHT22;40172;53.022;7.012;2023-08-08T11:54:11;18.00;99.90
54260;DHT22;40172;53.022;7.012;2023-08-08T11:56:37;18.10;99.90
54260;DHT22;40172;53.022;7.012;2023-08-08T11:59:04;18.80;99.90
54260;DHT22;40172;53.022;7.012;2023-08-08T12:01:31;18.50;99.90
54260;DHT22;40172;53.022;7.012;2023-08-08T12:03:57;18.50;99.90
54260;DHT22;40172;53.022;7.012;2023-08-08T12:06:27;18.70;99.90
54260;DHT22;40172;53.022;7.012;2023-08-08T12:08:54;18.30;99.90
54260;DHT22;40172;53.022;7.012;2023-08-08T12:11:20;18.00;99.90
54260;DHT22;40172;53.022;7.012;2023-08-08T12:13:45;17.80;99.90
54260;DHT22;40172;53.022;7.012;2023-08-08T12:16:14;17.90;99.90
54260;DHT22;40172;53.022;7.012;2023-08-08T12:18:40;18.10;99.90
54260;DHT22;40172;53.022;7.012;2023-08-08T12:21:08;18.20;99.90
54260;DHT22;40172;53.022;7.012;2023-08-08T12:23:34;18.00;99.90
54260;DHT22;40172;53.022;7.012;2023-08-08T12:26:03;18.00;99.90
54260;DHT22;40172;53.022;7.012;2023-08-08T12:28:28;18.00;99.90
54260;DHT22;40172;53.022;7.012;2023-08-08T12:30:54;18.20;99.90
54260;DHT22;40172;53.022;7.012;2023-08-08T12:33:20;18.40;99.90
54260;DHT22;40172;53.022;7.012;2023-08-08T12:35:46;18.60;99.90
54260;DHT22;40172;53.022;7.012;2023-08-08T12:38:12;18.70;99.90
54260;DHT22;40172;53.022;7.012;2023-08-08T12:40:38;18.80;99.90
54260;DHT22;40172;53.022;7.012;2023-08-08T12:43:04;18.80;99.90
54260;DHT22;40172;53.022;7.012;2023-08-08T12:45:29;18.90;99.90
54260;DHT22;40172;53.022;7.012;2023-08-08T12:47:55;19.00;99.90
54260;DHT22;40172;53.022;7.012;2023-08-08T12:50:21;19.10;99.90
54260;DHT22;40172;53.022;7.012;2023-08-08T12:52:46;19.20;99.90
54260;DHT22;40172;53.022;7.012;2023-08-08T12:55:12;20.10;99.90
54260;DHT22;40172;53.022;7.012;2023-08-08T12:57:37;19.20;99.90
54260;DHT22;40172;53.022;7.012;2023-08-08T13:00:04;19.70;99.90
54260;DHT22;40172;53.022;7.012;2023-08-08T13:02:32;19.20;99.90
54260;DHT22;40172;53.022;7.012;2023-08-08T13:04:57;19.10;99.90
54260;DHT22;40172;53.022;7.012;2023-08-08T13:07:23;19.00;99.90
54260;DHT22;40172;53.022;7.012;2023-08-08T13:09:49;18.80;99.90
54260;DHT22;40172;53.022;7.012;2023-08-08T13:12:14;18.60;99.90
54260;DHT22;40172;53.022;7.012;2023-08-08T13:14:40;18.50;99.90
54260;DHT22;40172;53.022;7.012;2023-08-08T13:17:05;18.60;99.90
54260;DHT22;40172;53.022;7.012;2023-08-08T13:19:31;18.80;99.90
54260;DHT22;40172;53.022;7.012;2023-08-08T13:21:56;18.80;99.90
54260;DHT22;40172;53.022;7.012;2023-08-08T13:24:23;18.80;99.90
54260;DHT22;40172;53.022;7.012;2023-08-08T13:26:51;18.70;99.90
54260;DHT22;40172;53.022;7.012;2023-08-08T13:29:17;18.50;99.90
54260;DHT22;40172;53.022;7.012;2023-08-08T13:31:42;18.60;99.90
54260;DHT22;40172;53.022;7.012;2023-08-08T13:34:09;18.70;99.90
54260;DHT22;40172;53.022;7.012;2023-08-08T13:36:35;18.70;99.90
54260;DHT22;40172;53.022;7.012;2023-08-08T13:39:01;18.80;99.90
54260;DHT22;40172;53.022;7.012;2023-08-08T13:41:26;18.90;99.90
54260;DHT22;40172;53.022;7.012;2023-08-08T13:43:52;19.00;99.90
54260;DHT22;40172;53.022;7.012;2023-08-08T13:46:17;19.00;99.90
54260;DHT22;40172;53.022;7.012;2023-08-08T13:48:43;18.90;99.90
54260;DHT22;40172;53.022;7.012;2023-08-08T13:51:08;18.90;99.90
54260;DHT22;40172;53.022;7.012;2023-08-08T13:53:34;18.90;99.90
54260;DHT22;40172;53.022;7.012;2023-08-08T13:56:00;19.00;99.90
54260;DHT22;40172;53.022;7.012;2023-08-08T13:58:25;19.00;99.90
54260;DHT22;40172;53.022;7.012;2023-08-08T14:00:51;19.10;99.90
54260;DHT22;40172;53.022;7.012;2023-08-08T14:03:18;18.90;99.90
54260;DHT22;40172;53.022;7.012;2023-08-08T14:05:44;18.80;99.90
54260;DHT22;40172;53.022;7.012;2023-08-08T14:08:10;18.60;99.90
54260;DHT22;40172;53.022;7.012;2023-08-08T14:10:36;18.60;99.90
54260;DHT22;40172;53.022;7.012;2023-08-08T14:13:02;18.60;99.90
54260;DHT22;40172;53.022;7.012;2023-08-08T14:15:28;18.50;99.90
54260;DHT22;40172;53.022;7.012;2023-08-08T14:17:54;18.40;99.90
54260;DHT22;40172;53.022;7.012;2023-08-08T14:20:20;18.30;99.90
54260;DHT22;40172;53.022;7.012;2023-08-08T14:22:46;18.50;99.90
54260;DHT22;40172;53.022;7.012;2023-08-08T14:25:13;18.60;99.90
54260;DHT22;40172;53.022;7.012;2023-08-08T14:27:39;18.90;99.90
54260;DHT22;40172;53.022;7.012;2023-08-08T14:30:05;18.90;99.90
54260;DHT22;40172;53.022;7.012;2023-08-08T14:32:30;18.80;99.90
54260;DHT22;40172;53.022;7.012;2023-08-08T14:34:56;18.60;99.90
54260;DHT22;40172;53.022;7.012;2023-08-08T14:37:22;18.70;99.90
54260;DHT22;40172;53.022;7.012;2023-08-08T14:39:48;18.90;99.90
54260;DHT22;40172;53.022;7.012;2023-08-08T14:42:14;18.90;99.90
54260;DHT22;40172;53.022;7.012;2023-08-08T14:44:40;19.00;99.90
54260;DHT22;40172;53.022;7.012;2023-08-08T14:47:05;19.00;99.90
54260;DHT22;40172;53.022;7.012;2023-08-08T14:49:40;18.90;99.90
54260;DHT22;40172;53.022;7.012;2023-08-08T14:52:05;18.70;99.90
54260;DHT22;40172;53.022;7.012;2023-08-08T14:54:31;18.80;99.90
54260;DHT22;40172;53.022;7.012;2023-08-08T14:56:56;18.60;99.90
54260;DHT22;40172;53.022;7.012;2023-08-08T14:59:23;18.40;99.90
54260;DHT22;40172;53.022;7.012;2023-08-08T15:01:49;18.40;99.90
54260;DHT22;40172;53.022;7.012;2023-08-08T15:04:14;18.60;99.90
54260;DHT22;40172;53.022;7.012;2023-08-08T15:06:40;18.70;99.90
54260;DHT22;40172;53.022;7.012;2023-08-08T15:09:06;18.80;99.90
54260;DHT22;40172;53.022;7.012;2023-08-08T15:11:32;18.60;99.90
54260;DHT22;40172;53.022;7.012;2023-08-08T15:13:58;18.30;99.90
54260;DHT22;40172;53.022;7.012;2023-08-08T15:16:24;18.10;99.90
54260;DHT22;40172;53.022;7.012;2023-08-08T15:18:49;18.10;99.90
54260;DHT22;40172;53.022;7.012;2023-08-08T15:21:15;18.10;99.90
54260;DHT22;40172;53.022;7.012;2023-08-08T15:23:45;18.20;99.90
54260;DHT22;40172;53.022;7.012;2023-08-08T15:26:11;18.00;99.90
54260;DHT22;40172;53.022;7.012;2023-08-08T15:28:37;18.00;99.90
54260;DHT22;40172;53.022;7.012;2023-08-08T15:31:03;18.00;99.90
54260;DHT22;40172;53.022;7.012;2023-08-08T15:33:29;18.20;99.90
54260;DHT22;40172;53.022;7.012;2023-08-08T15:35:54;18.40;99.90